This is the latest recevied weather packets stored in our database for station/object K4SHP-16. If no packets are shown the sender has not sent any weather packets the latest 10 day(s).
| Time | Temp. | Humidity | Pressure | Rain* | Wind** | Luminosity | Snow |
|---|---|---|---|---|---|---|---|
| 1777381744 | 14.44° C | 78% | 1024.7 hPa | 0 mm | - | - | - |
| 1777380303 | 13.33° C | 85% | 1024.7 hPa | 0 mm | - | - | - |
| 1777377603 | 10.56° C | 93% | 1023.6 hPa | 0 mm | - | - | - |
| 1777377244 | 10° C | 94% | 1023.4 hPa | 0 mm | - | - | - |
| 1777376185 | 9.44° C | 94% | 1023.3 hPa | 0 mm | - | - | - |
| 1777375084 | 8.33° C | 94% | 1022.8 hPa | 0 mm | - | - | - |
| 1777374544 | 7.78° C | 94% | 1022.6 hPa | 0 mm | - | - | - |
| 1777367364 | 6.11° C | 93% | 1021.9 hPa | 0 mm | - | - | - |
| 1777364823 | 6.11° C | 93% | 1022.5 hPa | 0 mm | - | - | - |
| 1777363224 | 7.22° C | 93% | 1022.9 hPa | 0 mm | - | - | - |
| 1777362843 | 7.78° C | 93% | 1022.8 hPa | 0 mm | - | - | - |
| 1777362303 | 7.22° C | 93% | 1022.9 hPa | 0 mm | - | - | - |
| 1777360684 | 7.78° C | 93% | 1022.5 hPa | 0 mm | - | - | - |
| 1777357083 | 7.78° C | 93% | 1023.2 hPa | 0 mm | - | - | - |
| 1777355643 | 8.33° C | 92% | 1023.3 hPa | 0 mm | - | - | - |
| 1777352064 | 8.89° C | 92% | 1023.9 hPa | 0 mm | - | - | - |
| 1777351503 | 8.89° C | 92% | 1024 hPa | 0 mm | - | - | - |
| 1777349343 | 8.89° C | 91% | 1024.1 hPa | 0 mm | - | - | - |
| 1777347903 | 8.89° C | 91% | 1024.2 hPa | 0 mm | - | - | - |
| 1777345205 | 10° C | 91% | 1024.4 hPa | 0 mm | - | - | - |
| 1777342684 | 11.11° C | 89% | 1024.2 hPa | 0 mm | - | - | - |
| 1777339084 | 12.78° C | 86% | 1023.7 hPa | 0 mm | - | - | - |
| 1777337644 | 13.33° C | 84% | 1023.3 hPa | 0 mm | - | - | - |
| 1777337104 | 13.89° C | 83% | 1023.3 hPa | 0 mm | - | - | - |
| 1777334944 | 16.11° C | 74% | 1022.4 hPa | 0 mm | - | - | - |
* Rain latest hour (hover to see other rain measurements)
** Current wind speed in m/s (hover to see current wind gust speed)